Wetterdaten: Woche 10.08.15 - 16.08.15 (KW33)
Datum Zeit Temp. A. Feuchte A. Luftdruck Regen Wind Richtung Sonnenschein ET UV Solar Taupunkt Windchill Windben
10.08.2015 00:00 21,9 C 74 % 1014,4 hPa 0,0 l/m 0,0 km/h (0 Bft) N 0,00 h 0,025 mm 0,0 UV-I 0 W/m 17,0 C 21,9 C 0,1 km/h (0 Bft)
10.08.2015 01:00 21,3 C 77 % 1014,2 hPa 0,0 l/m 0,3 km/h (0 Bft) N 0,00 h 0,025 mm 0,0 UV-I 0 W/m 17,1 C 21,3 C 1,6 km/h (1 Bft)
10.08.2015 02:00 20,8 C 79 % 1013,9 hPa 0,0 l/m 0,1 km/h (0 Bft) N 0,00 h 0,025 mm 0,0 UV-I 0 W/m 17,1 C 20,8 C 0,9 km/h (0 Bft)
10.08.2015 03:00 20,3 C 82 % 1013,4 hPa 0,0 l/m 0,6 km/h (0 Bft) N 0,00 h 0,025 mm 0,0 UV-I 0 W/m 17,1 C 20,3 C 2,3 km/h (1 Bft)
10.08.2015 04:00 19,7 C 84 % 1012,9 hPa 0,0 l/m 0,0 km/h (0 Bft) N 0,00 h 0,025 mm 0,0 UV-I 0 W/m 16,9 C 19,7 C 0,2 km/h (0 Bft)
10.08.2015 05:00 19,4 C 86 % 1012,8 hPa 0,0 l/m 0,2 km/h (0 Bft) N 0,00 h 0,025 mm 0,0 UV-I 5 W/m 17,0 C 19,4 C 1,7 km/h (1 Bft)
10.08.2015 06:00 19,9 C 85 % 1013,1 hPa 0,0 l/m 1,5 km/h (1 Bft) O-NO 0,00 h 0,000 mm 0,0 UV-I 21 W/m 17,4 C 19,9 C 4,3 km/h (1 Bft)
10.08.2015 07:00 20,8 C 83 % 1013,0 hPa 0,0 l/m 1,0 km/h (0 Bft) N 0,65 h 0,025 mm 0,6 UV-I 133 W/m 17,9 C 20,8 C 2,7 km/h (1 Bft)
10.08.2015 08:00 23,6 C 74 % 1012,9 hPa 0,0 l/m 4,4 km/h (1 Bft) O-NO 1,00 h 0,076 mm 1,1 UV-I 325 W/m 18,5 C 23,5 C 8,0 km/h (2 Bft)
10.08.2015 09:00 26,3 C 62 % 1012,7 hPa 0,0 l/m 2,5 km/h (1 Bft) O-NO 1,00 h 0,229 mm 2,1 UV-I 499 W/m 18,4 C 26,3 C 6,2 km/h (2 Bft)
10.08.2015 10:00 28,2 C 51 % 1012,5 hPa 0,0 l/m 3,4 km/h (1 Bft) SO 1,00 h 0,330 mm 3,3 UV-I 638 W/m 17,1 C 28,2 C 7,3 km/h (2 Bft)
10.08.2015 11:00 29,8 C 42 % 1012,3 hPa 0,0 l/m 6,5 km/h (2 Bft) SO 1,00 h 0,457 mm 4,6 UV-I 735 W/m 15,3 C 29,7 C 11,9 km/h (2 Bft)
10.08.2015 12:00 30,9 C 37 % 1012,0 hPa 0,0 l/m 6,7 km/h (2 Bft) SO 1,00 h 0,559 mm 5,4 UV-I 784 W/m 14,4 C 30,8 C 12,8 km/h (3 Bft)
10.08.2015 13:00 32,0 C 33 % 1011,7 hPa 0,0 l/m 6,9 km/h (2 Bft) SO 1,00 h 0,610 mm 5,5 UV-I 797 W/m 13,9 C 31,9 C 12,0 km/h (2 Bft)
10.08.2015 14:00 32,3 C 30 % 1011,4 hPa 0,0 l/m 7,2 km/h (2 Bft) S-SO 1,00 h 0,635 mm 4,8 UV-I 715 W/m 12,6 C 32,3 C 13,0 km/h (3 Bft)
10.08.2015 15:00 32,9 C 29 % 1011,0 hPa 0,0 l/m 4,6 km/h (1 Bft) SO 1,00 h 0,584 mm 3,7 UV-I 621 W/m 12,5 C 32,8 C 9,1 km/h (2 Bft)
10.08.2015 16:00 33,4 C 27 % 1010,4 hPa 0,0 l/m 2,7 km/h (1 Bft) SO 1,00 h 0,508 mm 2,5 UV-I 520 W/m 11,6 C 33,4 C 7,1 km/h (2 Bft)
10.08.2015 17:00 32,1 C 25 % 1010,3 hPa 0,0 l/m 4,3 km/h (1 Bft) SO 1,00 h 0,406 mm 1,2 UV-I 151 W/m 9,3 C 32,1 C 10,1 km/h (2 Bft)
10.08.2015 18:00 32,0 C 25 % 1009,9 hPa 0,0 l/m 2,8 km/h (1 Bft) O-SO 0,95 h 0,178 mm 0,7 UV-I 86 W/m 9,6 C 32,0 C 7,3 km/h (2 Bft)
10.08.2015 19:00 30,9 C 26 % 1009,9 hPa 0,0 l/m 0,6 km/h (0 Bft) N 0,00 h 0,127 mm 0,0 UV-I 29 W/m 9,2 C 30,9 C 2,2 km/h (1 Bft)
10.08.2015 20:00 28,0 C 33 % 1010,3 hPa 0,0 l/m 0,2 km/h (0 Bft) N 0,00 h 0,051 mm 0,0 UV-I 7 W/m 10,1 C 28,0 C 1,1 km/h (1 Bft)
10.08.2015 21:00 24,7 C 42 % 1011,1 hPa 0,0 l/m 0,0 km/h (0 Bft) N 0,00 h 0,025 mm 0,0 UV-I 0 W/m 10,8 C 24,7 C 0,3 km/h (0 Bft)
10.08.2015 22:00 23,0 C 47 % 1011,2 hPa 0,0 l/m 0,1 km/h (0 Bft) N 0,00 h 0,051 mm 0,0 UV-I 0 W/m 10,9 C 23,0 C 0,7 km/h (0 Bft)
10.08.2015 23:00 20,7 C 54 % 1011,0 hPa 0,0 l/m 0,0 km/h (0 Bft) N 0,00 h 0,051 mm 0,0 UV-I 0 W/m 11,1 C 20,7 C 0,4 km/h (0 Bft)
11.08.2015 00:00 19,8 C 57 % 1011,3 hPa 0,0 l/m 0,0 km/h (0 Bft) N 0,00 h 0,051 mm 0,0 UV-I 0 W/m 11,0 C 19,8 C 0,0 km/h (0 Bft)
11.08.2015 01:00 18,5 C 63 % 1011,4 hPa 0,0 l/m 0,0 km/h (0 Bft) N 0,00 h 0,051 mm 0,0 UV-I 0 W/m 11,4 C 18,5 C 0,0 km/h (0 Bft)
11.08.2015 02:00 17,9 C 67 % 1011,4 hPa 0,0 l/m 0,0 km/h (0 Bft) N 0,00 h 0,025 mm 0,0 UV-I 0 W/m 11,7 C 17,9 C 0,0 km/h (0 Bft)
11.08.2015 03:00 17,2 C 73 % 1011,7 hPa 0,0 l/m 0,1 km/h (0 Bft) N 0,00 h 0,025 mm 0,0 UV-I 0 W/m 12,4 C 17,2 C 0,3 km/h (0 Bft)
11.08.2015 04:00 16,1 C 77 % 1012,0 hPa 0,0 l/m 0,3 km/h (0 Bft) N 0,00 h 0,000 mm 0,0 UV-I 0 W/m 12,1 C 16,1 C 0,6 km/h (0 Bft)
11.08.2015 05:00 15,9 C 78 % 1012,2 hPa 0,0 l/m 0,0 km/h (0 Bft) N 0,00 h 0,025 mm 0,0 UV-I 5 W/m 12,1 C 15,9 C 0,1 km/h (0 Bft)
11.08.2015 06:00 15,4 C 82 % 1012,3 hPa 0,0 l/m 0,0 km/h (0 Bft) N 0,00 h 0,000 mm 0,0 UV-I 19 W/m 12,4 C 15,4 C 0,0 km/h (0 Bft)
11.08.2015 07:00 16,8 C 79 % 1012,4 hPa 0,0 l/m 0,0 km/h (0 Bft) N 0,65 h 0,025 mm 0,6 UV-I 126 W/m 13,1 C 16,8 C 0,0 km/h (0 Bft)
11.08.2015 08:00 20,4 C 67 % 1013,0 hPa 0,0 l/m 0,8 km/h (0 Bft) N 1,00 h 0,076 mm 1,1 UV-I 325 W/m 14,0 C 20,4 C 2,2 km/h (1 Bft)
11.08.2015 09:00 25,4 C 51 % 1013,1 hPa 0,0 l/m 0,3 km/h (0 Bft) N 1,00 h 0,203 mm 2,1 UV-I 486 W/m 14,6 C 25,4 C 1,1 km/h (1 Bft)
11.08.2015 10:00 28,6 C 42 % 1013,2 hPa 0,0 l/m 0,9 km/h (0 Bft) N 1,00 h 0,305 mm 3,2 UV-I 655 W/m 14,3 C 28,6 C 2,4 km/h (1 Bft)
11.08.2015 11:00 29,9 C 38 % 1013,3 hPa 0,0 l/m 1,9 km/h (1 Bft) N 1,00 h 0,457 mm 4,3 UV-I 704 W/m 14,1 C 29,9 C 5,0 km/h (1 Bft)
11.08.2015 12:00 31,1 C 34 % 1013,2 hPa 0,0 l/m 3,2 km/h (1 Bft) S 1,00 h 0,508 mm 5,0 UV-I 766 W/m 13,5 C 31,1 C 7,2 km/h (2 Bft)
11.08.2015 13:00 31,9 C 31 % 1013,1 hPa 0,0 l/m 4,5 km/h (1 Bft) S 1,00 h 0,559 mm 5,2 UV-I 790 W/m 12,8 C 31,8 C 8,6 km/h (2 Bft)
11.08.2015 14:00 32,3 C 29 % 1012,9 hPa 0,0 l/m 5,7 km/h (2 Bft) S-SO 1,00 h 0,610 mm 4,8 UV-I 752 W/m 12,1 C 32,3 C 10,3 km/h (2 Bft)
11.08.2015 15:00 32,9 C 25 % 1012,9 hPa 0,0 l/m 2,2 km/h (1 Bft) N 1,00 h 0,584 mm 3,8 UV-I 664 W/m 10,5 C 32,9 C 5,2 km/h (1 Bft)
11.08.2015 16:00 32,6 C 24 % 1012,8 hPa 0,0 l/m 2,4 km/h (1 Bft) N 1,00 h 0,508 mm 2,6 UV-I 541 W/m 9,1 C 32,6 C 5,7 km/h (2 Bft)
11.08.2015 17:00 32,4 C 23 % 1012,8 hPa 0,0 l/m 1,8 km/h (1 Bft) N 1,00 h 0,406 mm 1,5 UV-I 398 W/m 8,4 C 32,4 C 4,0 km/h (1 Bft)
11.08.2015 18:00 31,2 C 24 % 1012,9 hPa 0,0 l/m 0,9 km/h (0 Bft) N 0,62 h 0,256 mm 0,7 UV-I 79 W/m 8,1 C 31,2 C 2,6 km/h (1 Bft)
11.08.2015 19:00 30,0 C 27 % 1013,2 hPa 0,0 l/m 0,1 km/h (0 Bft) N 0,00 h 0,102 mm 0,0 UV-I 28 W/m 8,7 C 30,0 C 0,4 km/h (0 Bft)
11.08.2015 20:00 26,9 C 44 % 1013,6 hPa 0,0 l/m 3,8 km/h (1 Bft) N 0,00 h 0,051 mm 0,0 UV-I 8 W/m 13,2 C 26,8 C 7,5 km/h (2 Bft)
11.08.2015 21:00 25,4 C 58 % 1014,5 hPa 0,0 l/m 6,8 km/h (2 Bft) N 0,00 h 0,051 mm 0,0 UV-I 0 W/m 16,5 C 24,9 C 11,8 km/h (2 Bft)
11.08.2015 22:00 23,9 C 64 % 1015,1 hPa 0,0 l/m 0,1 km/h (0 Bft) N 0,00 h 0,076 mm 0,0 UV-I 0 W/m 16,7 C 23,9 C 0,5 km/h (0 Bft)
11.08.2015 23:00 22,6 C 69 % 1015,8 hPa 0,0 l/m 0,0 km/h (0 Bft) N 0,00 h 0,025 mm 0,0 UV-I 0 W/m 16,7 C 22,6 C 0,0 km/h (0 Bft)
12.08.2015 00:00 21,8 C 73 % 1016,1 hPa 0,0 l/m 0,0 km/h (0 Bft) N 0,00 h 0,025 mm 0,0 UV-I 0 W/m 16,6 C 21,8 C 0,0 km/h (0 Bft)
12.08.2015 01:00 20,6 C 77 % 1016,3 hPa 0,0 l/m 0,0 km/h (0 Bft) N 0,00 h 0,025 mm 0,0 UV-I 0 W/m 16,5 C 20,6 C 0,6 km/h (0 Bft)
12.08.2015 02:00 19,9 C 80 % 1016,1 hPa 0,0 l/m 0,0 km/h (0 Bft) N 0,00 h 0,025 mm 0,0 UV-I 0 W/m 16,3 C 19,9 C 0,0 km/h (0 Bft)
12.08.2015 03:00 19,4 C 82 % 1016,2 hPa 0,0 l/m 0,1 km/h (0 Bft) N 0,00 h 0,025 mm 0,0 UV-I 0 W/m 16,2 C 19,4 C 0,5 km/h (0 Bft)
12.08.2015 04:00 18,9 C 84 % 1016,3 hPa 0,0 l/m 0,0 km/h (0 Bft) N 0,00 h 0,000 mm 0,0 UV-I 0 W/m 16,1 C 18,9 C 0,7 km/h (0 Bft)
12.08.2015 05:00 18,0 C 87 % 1016,4 hPa 0,0 l/m 0,1 km/h (0 Bft) N 0,00 h 0,025 mm 0,0 UV-I 0 W/m 15,8 C 18,0 C 0,6 km/h (0 Bft)
12.08.2015 06:00 17,6 C 89 % 1016,6 hPa 0,0 l/m 0,0 km/h (0 Bft) N 0,00 h 0,000 mm 0,0 UV-I 20 W/m 15,8 C 17,6 C 0,2 km/h (0 Bft)
12.08.2015 07:00 18,8 C 87 % 1016,9 hPa 0,0 l/m 0,8 km/h (0 Bft) N 0,73 h 0,025 mm 0,6 UV-I 124 W/m 16,5 C 18,8 C 1,9 km/h (1 Bft)
12.08.2015 08:00 21,4 C 78 % 1017,1 hPa 0,0 l/m 1,0 km/h (0 Bft) N 1,00 h 0,076 mm 1,0 UV-I 303 W/m 17,4 C 21,4 C 3,2 km/h (1 Bft)
12.08.2015 09:00 24,2 C 69 % 1017,2 hPa 0,0 l/m 4,0 km/h (1 Bft) N 1,00 h 0,178 mm 2,0 UV-I 471 W/m 18,1 C 24,2 C 8,0 km/h (2 Bft)
12.08.2015 10:00 26,7 C 60 % 1017,1 hPa 0,0 l/m 4,5 km/h (1 Bft) N 1,00 h 0,305 mm 3,1 UV-I 617 W/m 18,1 C 26,6 C 8,1 km/h (2 Bft)
12.08.2015 11:00 29,8 C 50 % 1016,9 hPa 0,0 l/m 2,6 km/h (1 Bft) W-NW 1,00 h 0,432 mm 4,4 UV-I 721 W/m 18,3 C 29,8 C 5,8 km/h (2 Bft)
12.08.2015 12:00 31,6 C 43 % 1016,8 hPa 0,0 l/m 3,0 km/h (1 Bft) W-NW 1,00 h 0,508 mm 5,1 UV-I 769 W/m 17,6 C 31,6 C 6,4 km/h (2 Bft)
12.08.2015 13:00 32,5 C 38 % 1016,6 hPa 0,0 l/m 3,2 km/h (1 Bft) W 1,00 h 0,559 mm 4,3 UV-I 664 W/m 16,3 C 32,5 C 6,8 km/h (2 Bft)
12.08.2015 14:00 31,2 C 39 % 1016,2 hPa 0,0 l/m 1,3 km/h (1 Bft) N 1,00 h 0,457 mm 2,7 UV-I 291 W/m 15,3 C 31,2 C 3,2 km/h (1 Bft)
12.08.2015 15:00 31,7 C 41 % 1015,7 hPa 0,0 l/m 6,6 km/h (2 Bft) N 1,00 h 0,254 mm 2,8 UV-I 403 W/m 16,8 C 31,7 C 12,2 km/h (2 Bft)
12.08.2015 16:00 29,9 C 44 % 1015,8 hPa 0,0 l/m 3,1 km/h (1 Bft) N 1,00 h 0,330 mm 1,3 UV-I 111 W/m 16,3 C 29,9 C 6,7 km/h (2 Bft)
12.08.2015 17:00 29,4 C 44 % 1015,8 hPa 0,0 l/m 1,7 km/h (1 Bft) N 1,00 h 0,127 mm 0,6 UV-I 74 W/m 16,0 C 29,4 C 4,9 km/h (1 Bft)
12.08.2015 18:00 29,4 C 46 % 1015,7 hPa 0,0 l/m 4,9 km/h (1 Bft) N 1,00 h 0,076 mm 0,5 UV-I 96 W/m 16,4 C 29,3 C 10,3 km/h (2 Bft)
12.08.2015 19:00 28,3 C 53 % 1016,2 hPa 0,0 l/m 5,4 km/h (2 Bft) N-NO 0,63 h 0,127 mm 0,0 UV-I 61 W/m 17,7 C 28,1 C 10,8 km/h (2 Bft)
12.08.2015 20:00 26,4 C 60 % 1016,6 hPa 0,0 l/m 2,5 km/h (1 Bft) N 0,00 h 0,102 mm 0,0 UV-I 9 W/m 17,8 C 26,3 C 5,9 km/h (2 Bft)
12.08.2015 21:00 24,6 C 64 % 1017,1 hPa 0,0 l/m 0,2 km/h (0 Bft) N 0,00 h 0,025 mm 0,0 UV-I 0 W/m 17,4 C 24,6 C 1,3 km/h (1 Bft)
12.08.2015 22:00 23,0 C 68 % 1017,3 hPa 0,0 l/m 0,0 km/h (0 Bft) N 0,00 h 0,051 mm 0,0 UV-I 0 W/m 16,9 C 23,0 C 0,3 km/h (0 Bft)
12.08.2015 23:00 22,0 C 70 % 1017,5 hPa 0,0 l/m 1,4 km/h (1 Bft) N 0,00 h 0,025 mm 0,0 UV-I 0 W/m 16,3 C 22,0 C 3,3 km/h (1 Bft)
13.08.2015 00:00 21,5 C 73 % 1017,4 hPa 0,0 l/m 0,7 km/h (0 Bft) N 0,00 h 0,025 mm 0,0 UV-I 0 W/m 16,5 C 21,5 C 2,2 km/h (1 Bft)
13.08.2015 01:00 20,8 C 76 % 1017,1 hPa 0,0 l/m 0,0 km/h (0 Bft) N 0,00 h 0,025 mm 0,0 UV-I 0 W/m 16,5 C 20,8 C 0,2 km/h (0 Bft)
13.08.2015 02:00 19,8 C 81 % 1016,8 hPa 0,0 l/m 1,9 km/h (1 Bft) N 0,00 h 0,025 mm 0,0 UV-I 0 W/m 16,5 C 19,8 C 4,8 km/h (1 Bft)
13.08.2015 03:00 20,0 C 80 % 1016,6 hPa 0,0 l/m 4,6 km/h (1 Bft) N 0,00 h 0,025 mm 0,0 UV-I 0 W/m 16,4 C 19,8 C 9,6 km/h (2 Bft)
13.08.2015 04:00 19,4 C 82 % 1016,3 hPa 0,0 l/m 1,1 km/h (1 Bft) N 0,00 h 0,000 mm 0,0 UV-I 0 W/m 16,2 C 19,4 C 3,4 km/h (1 Bft)
13.08.2015 05:00 19,0 C 83 % 1016,1 hPa 0,0 l/m 3,5 km/h (1 Bft) N 0,00 h 0,025 mm 0,0 UV-I 0 W/m 16,1 C 18,9 C 7,6 km/h (2 Bft)
13.08.2015 06:00 18,6 C 85 % 1016,1 hPa 0,0 l/m 1,5 km/h (1 Bft) N 0,00 h 0,000 mm 0,0 UV-I 19 W/m 16,0 C 18,6 C 4,8 km/h (1 Bft)
13.08.2015 07:00 19,6 C 83 % 1016,1 hPa 0,0 l/m 0,3 km/h (0 Bft) N 0,75 h 0,025 mm 0,6 UV-I 117 W/m 16,6 C 19,6 C 1,0 km/h (0 Bft)
13.08.2015 08:00 23,1 C 71 % 1015,9 hPa 0,0 l/m 1,7 km/h (1 Bft) N-NO 1,00 h 0,076 mm 1,0 UV-I 290 W/m 17,6 C 23,1 C 4,6 km/h (1 Bft)
13.08.2015 09:00 25,8 C 60 % 1015,7 hPa 0,0 l/m 3,5 km/h (1 Bft) O 1,00 h 0,178 mm 1,9 UV-I 442 W/m 17,5 C 25,8 C 9,2 km/h (2 Bft)
13.08.2015 10:00 27,9 C 54 % 1015,3 hPa 0,0 l/m 4,7 km/h (1 Bft) O-NO 1,00 h 0,305 mm 3,0 UV-I 582 W/m 17,6 C 27,7 C 11,7 km/h (2 Bft)
13.08.2015 11:00 29,4 C 48 % 1015,0 hPa 0,0 l/m 3,5 km/h (1 Bft) O-NO 1,00 h 0,432 mm 4,1 UV-I 675 W/m 17,2 C 29,3 C 9,9 km/h (2 Bft)
13.08.2015 12:00 31,1 C 42 % 1014,3 hPa 0,0 l/m 3,8 km/h (1 Bft) SO 1,00 h 0,483 mm 4,7 UV-I 721 W/m 16,5 C 31,1 C 8,6 km/h (2 Bft)
13.08.2015 13:00 32,4 C 37 % 1013,6 hPa 0,0 l/m 3,6 km/h (1 Bft) SO 1,00 h 0,533 mm 4,8 UV-I 724 W/m 15,8 C 32,4 C 9,2 km/h (2 Bft)
13.08.2015 14:00 33,5 C 33 % 1012,8 hPa 0,0 l/m 4,0 km/h (1 Bft) O 1,00 h 0,533 mm 4,4 UV-I 693 W/m 14,9 C 33,5 C 10,6 km/h (2 Bft)
13.08.2015 15:00 33,8 C 29 % 1012,1 hPa 0,0 l/m 4,4 km/h (1 Bft) SO 1,00 h 0,533 mm 3,6 UV-I 630 W/m 13,4 C 33,8 C 10,8 km/h (2 Bft)
13.08.2015 16:00 33,6 C 29 % 1011,4 hPa 0,0 l/m 4,0 km/h (1 Bft) O 1,00 h 0,508 mm 2,3 UV-I 476 W/m 13,2 C 33,6 C 11,2 km/h (2 Bft)
13.08.2015 17:00 33,1 C 32 % 1010,9 hPa 0,0 l/m 4,8 km/h (1 Bft) O-SO 1,00 h 0,381 mm 1,3 UV-I 356 W/m 13,9 C 33,1 C 11,3 km/h (2 Bft)
13.08.2015 18:00 32,0 C 34 % 1010,5 hPa 0,0 l/m 1,9 km/h (1 Bft) O 1,00 h 0,305 mm 0,6 UV-I 134 W/m 14,2 C 32,0 C 6,5 km/h (2 Bft)
13.08.2015 19:00 30,4 C 37 % 1009,9 hPa 0,0 l/m 1,5 km/h (1 Bft) O-NO 0,23 h 0,127 mm 0,0 UV-I 42 W/m 14,0 C 30,4 C 5,7 km/h (2 Bft)
13.08.2015 20:00 28,8 C 40 % 1009,7 hPa 0,0 l/m 2,3 km/h (1 Bft) O-NO 0,00 h 0,051 mm 0,0 UV-I 7 W/m 13,9 C 28,7 C 6,6 km/h (2 Bft)
13.08.2015 21:00 27,3 C 43 % 1009,8 hPa 0,0 l/m 1,0 km/h (0 Bft) O-NO 0,00 h 0,051 mm 0,0 UV-I 0 W/m 13,7 C 27,3 C 4,3 km/h (1 Bft)
13.08.2015 22:00 26,3 C 45 % 1009,7 hPa 0,0 l/m 2,2 km/h (1 Bft) O-NO 0,00 h 0,076 mm 0,0 UV-I 0 W/m 13,5 C 26,2 C 7,2 km/h (2 Bft)
13.08.2015 23:00 26,3 C 47 % 1009,6 hPa 0,0 l/m 3,6 km/h (1 Bft) O-NO 0,00 h 0,076 mm 0,0 UV-I 0 W/m 14,2 C 26,2 C 10,3 km/h (2 Bft)
14.08.2015 00:00 25,9 C 50 % 1009,6 hPa 0,0 l/m 1,3 km/h (1 Bft) N 0,00 h 0,076 mm 0,0 UV-I 0 W/m 14,8 C 25,9 C 5,1 km/h (1 Bft)
14.08.2015 01:00 25,6 C 51 % 1009,2 hPa 0,0 l/m 3,1 km/h (1 Bft) O 0,00 h 0,051 mm 0,0 UV-I 0 W/m 14,7 C 25,6 C 10,3 km/h (2 Bft)
14.08.2015 02:00 24,4 C 55 % 1008,8 hPa 0,0 l/m 1,8 km/h (1 Bft) O-NO 0,00 h 0,076 mm 0,0 UV-I 0 W/m 14,7 C 24,4 C 5,9 km/h (2 Bft)
14.08.2015 03:00 23,1 C 60 % 1008,3 hPa 0,0 l/m 2,9 km/h (1 Bft) O-NO 0,00 h 0,051 mm 0,0 UV-I 0 W/m 14,8 C 23,0 C 7,5 km/h (2 Bft)
14.08.2015 04:00 22,7 C 61 % 1007,9 hPa 0,0 l/m 5,0 km/h (1 Bft) O-NO 0,00 h 0,000 mm 0,0 UV-I 0 W/m 14,8 C 22,4 C 11,7 km/h (2 Bft)
14.08.2015 05:00 22,1 C 63 % 1007,8 hPa 0,0 l/m 1,2 km/h (1 Bft) N 0,00 h 0,051 mm 0,0 UV-I 0 W/m 14,7 C 22,1 C 4,2 km/h (1 Bft)
14.08.2015 06:00 21,1 C 67 % 1008,0 hPa 0,0 l/m 0,9 km/h (0 Bft) N 0,00 h 0,025 mm 0,0 UV-I 16 W/m 14,7 C 21,1 C 2,1 km/h (1 Bft)
14.08.2015 07:00 21,9 C 67 % 1007,8 hPa 0,0 l/m 1,3 km/h (1 Bft) O-NO 0,72 h 0,025 mm 0,6 UV-I 129 W/m 15,5 C 21,9 C 4,4 km/h (1 Bft)
14.08.2015 08:00 24,5 C 59 % 1007,9 hPa 0,0 l/m 0,9 km/h (0 Bft) N 1,00 h 0,102 mm 1,0 UV-I 326 W/m 16,1 C 24,5 C 2,6 km/h (1 Bft)
14.08.2015 09:00 26,6 C 52 % 1007,7 hPa 0,0 l/m 1,7 km/h (1 Bft) SO 1,00 h 0,229 mm 2,0 UV-I 488 W/m 15,9 C 26,6 C 3,6 km/h (1 Bft)
14.08.2015 10:00 28,0 C 48 % 1007,6 hPa 0,0 l/m 1,0 km/h (0 Bft) N 1,00 h 0,330 mm 3,0 UV-I 609 W/m 16,0 C 28,0 C 3,4 km/h (1 Bft)
14.08.2015 11:00 29,9 C 42 % 1007,2 hPa 0,0 l/m 1,6 km/h (1 Bft) N 1,00 h 0,406 mm 4,2 UV-I 700 W/m 15,6 C 29,9 C 4,2 km/h (1 Bft)
14.08.2015 12:00 31,4 C 38 % 1006,7 hPa 0,0 l/m 2,0 km/h (1 Bft) N 1,00 h 0,483 mm 4,9 UV-I 744 W/m 15,2 C 31,4 C 5,7 km/h (2 Bft)
14.08.2015 13:00 32,4 C 34 % 1006,2 hPa 0,0 l/m 3,9 km/h (1 Bft) SO 1,00 h 0,533 mm 4,9 UV-I 746 W/m 14,7 C 32,4 C 8,2 km/h (2 Bft)
14.08.2015 14:00 32,7 C 34 % 1005,8 hPa 0,0 l/m 3,5 km/h (1 Bft) S 1,00 h 0,559 mm 4,3 UV-I 681 W/m 14,6 C 32,7 C 7,3 km/h (2 Bft)
14.08.2015 15:00 32,0 C 35 % 1005,2 hPa 0,0 l/m 4,6 km/h (1 Bft) S 1,00 h 0,508 mm 2,9 UV-I 448 W/m 14,5 C 32,0 C 9,5 km/h (2 Bft)
14.08.2015 16:00 32,3 C 36 % 1004,4 hPa 0,0 l/m 4,3 km/h (1 Bft) S 1,00 h 0,381 mm 2,3 UV-I 494 W/m 15,1 C 32,3 C 8,7 km/h (2 Bft)
14.08.2015 17:00 32,0 C 36 % 1003,8 hPa 0,0 l/m 3,3 km/h (1 Bft) W 1,00 h 0,406 mm 1,3 UV-I 343 W/m 15,1 C 32,0 C 7,6 km/h (2 Bft)
14.08.2015 18:00 30,1 C 40 % 1003,8 hPa 0,0 l/m 2,1 km/h (1 Bft) N 1,00 h 0,279 mm 0,6 UV-I 107 W/m 15,0 C 30,1 C 4,7 km/h (1 Bft)
14.08.2015 19:00 29,2 C 44 % 1004,1 hPa 0,0 l/m 3,4 km/h (1 Bft) W 0,18 h 0,102 mm 0,0 UV-I 32 W/m 15,6 C 29,1 C 7,6 km/h (2 Bft)
14.08.2015 20:00 27,5 C 49 % 1004,1 hPa 0,0 l/m 2,5 km/h (1 Bft) N 0,00 h 0,076 mm 0,0 UV-I 7 W/m 15,9 C 27,5 C 6,2 km/h (2 Bft)
14.08.2015 21:00 25,2 C 59 % 1004,5 hPa 0,0 l/m 6,0 km/h (2 Bft) N 0,00 h 0,025 mm 0,0 UV-I 0 W/m 16,5 C 24,8 C 11,2 km/h (2 Bft)
14.08.2015 22:00 22,3 C 69 % 1005,8 hPa 0,0 l/m 7,0 km/h (2 Bft) W 0,00 h 0,076 mm 0,0 UV-I 0 W/m 16,3 C 21,8 C 14,8 km/h (3 Bft)
14.08.2015 23:00 20,4 C 80 % 1007,3 hPa 1,0 l/m 7,0 km/h (2 Bft) S-SO 0,00 h 0,051 mm 0,0 UV-I 0 W/m 16,8 C 19,7 C 14,9 km/h (3 Bft)
15.08.2015 00:00 18,4 C 91 % 1007,7 hPa 2,0 l/m 0,6 km/h (0 Bft) N 0,00 h 0,025 mm 0,0 UV-I 0 W/m 16,9 C 18,4 C 1,3 km/h (1 Bft)
15.08.2015 01:00 18,0 C 95 % 1006,0 hPa 1,4 l/m 0,3 km/h (0 Bft) N 0,00 h 0,000 mm 0,0 UV-I 0 W/m 17,1 C 18,0 C 1,1 km/h (1 Bft)
15.08.2015 02:00 17,7 C 96 % 1006,2 hPa 0,0 l/m 0,0 km/h (0 Bft) N 0,00 h 0,000 mm 0,0 UV-I 0 W/m 17,1 C 17,7 C 0,0 km/h (0 Bft)
15.08.2015 03:00 17,5 C 96 % 1006,4 hPa 0,0 l/m 0,0 km/h (0 Bft) N 0,00 h 0,000 mm 0,0 UV-I 0 W/m 16,8 C 17,5 C 0,1 km/h (0 Bft)
15.08.2015 04:00 17,1 C 96 % 1006,3 hPa 0,0 l/m 0,0 km/h (0 Bft) N 0,00 h 0,000 mm 0,0 UV-I 0 W/m 16,5 C 17,1 C 0,1 km/h (0 Bft)
15.08.2015 05:00 17,1 C 96 % 1006,3 hPa 0,0 l/m 0,0 km/h (0 Bft) N 0,00 h 0,000 mm 0,0 UV-I 0 W/m 16,5 C 17,1 C 0,2 km/h (0 Bft)
15.08.2015 06:00 17,4 C 96 % 1006,6 hPa 0,0 l/m 1,0 km/h (0 Bft) N 0,10 h 0,000 mm 0,0 UV-I 32 W/m 16,7 C 17,4 C 3,2 km/h (1 Bft)
15.08.2015 07:00 17,7 C 95 % 1006,9 hPa 0,0 l/m 1,6 km/h (1 Bft) S 0,92 h 0,025 mm 0,5 UV-I 69 W/m 17,0 C 17,7 C 4,1 km/h (1 Bft)
15.08.2015 08:00 18,0 C 94 % 1007,3 hPa 0,0 l/m 1,0 km/h (0 Bft) S 0,82 h 0,051 mm 0,6 UV-I 74 W/m 17,1 C 18,0 C 3,5 km/h (1 Bft)
15.08.2015 09:00 18,7 C 92 % 1007,7 hPa 0,0 l/m 1,0 km/h (0 Bft) N 1,00 h 0,051 mm 1,1 UV-I 166 W/m 17,3 C 18,7 C 3,0 km/h (1 Bft)
15.08.2015 10:00 19,7 C 86 % 1008,0 hPa 0,0 l/m 2,0 km/h (1 Bft) S 1,00 h 0,102 mm 2,5 UV-I 397 W/m 17,3 C 19,7 C 5,5 km/h (2 Bft)
15.08.2015 11:00 21,8 C 75 % 1008,0 hPa 0,0 l/m 2,4 km/h (1 Bft) W-SW 1,00 h 0,229 mm 3,7 UV-I 552 W/m 17,3 C 21,9 C 6,1 km/h (2 Bft)
15.08.2015 12:00 22,6 C 71 % 1007,9 hPa 0,0 l/m 3,0 km/h (1 Bft) W-SW 1,00 h 0,330 mm 4,8 UV-I 586 W/m 17,0 C 22,5 C 7,0 km/h (2 Bft)
15.08.2015 13:00 24,5 C 62 % 1007,8 hPa 0,0 l/m 3,3 km/h (1 Bft) W 1,00 h 0,356 mm 5,2 UV-I 620 W/m 16,8 C 24,5 C 7,3 km/h (2 Bft)
15.08.2015 14:00 25,3 C 56 % 1007,6 hPa 0,0 l/m 2,1 km/h (1 Bft) N 1,00 h 0,406 mm 4,1 UV-I 493 W/m 15,7 C 25,2 C 5,1 km/h (1 Bft)
15.08.2015 15:00 25,1 C 55 % 1007,5 hPa 0,0 l/m 1,4 km/h (1 Bft) N 1,00 h 0,330 mm 2,8 UV-I 340 W/m 15,2 C 25,1 C 3,7 km/h (1 Bft)
15.08.2015 16:00 26,4 C 46 % 1007,2 hPa 0,0 l/m 2,4 km/h (1 Bft) N 1,00 h 0,254 mm 2,8 UV-I 487 W/m 13,6 C 26,3 C 5,2 km/h (1 Bft)
15.08.2015 17:00 26,7 C 47 % 1006,8 hPa 0,0 l/m 2,4 km/h (1 Bft) N 1,00 h 0,330 mm 1,6 UV-I 384 W/m 14,3 C 26,6 C 5,2 km/h (1 Bft)
15.08.2015 18:00 25,5 C 49 % 1006,7 hPa 0,0 l/m 2,3 km/h (1 Bft) W-SW 0,72 h 0,279 mm 0,8 UV-I 89 W/m 13,9 C 25,5 C 5,0 km/h (1 Bft)
15.08.2015 19:00 24,5 C 52 % 1007,0 hPa 0,0 l/m 0,8 km/h (0 Bft) N 0,00 h 0,076 mm 0,0 UV-I 28 W/m 14,0 C 24,5 C 2,0 km/h (1 Bft)
15.08.2015 20:00 23,1 C 60 % 1007,3 hPa 0,0 l/m 0,2 km/h (0 Bft) N 0,00 h 0,025 mm 0,0 UV-I 7 W/m 14,9 C 23,1 C 0,7 km/h (0 Bft)
15.08.2015 21:00 21,7 C 69 % 1007,8 hPa 0,0 l/m 1,3 km/h (1 Bft) N 0,00 h 0,000 mm 0,0 UV-I 0 W/m 15,7 C 21,7 C 2,8 km/h (1 Bft)
15.08.2015 22:00 21,1 C 71 % 1007,8 hPa 0,0 l/m 4,6 km/h (1 Bft) N 0,00 h 0,025 mm 0,0 UV-I 0 W/m 15,6 C 21,1 C 8,8 km/h (2 Bft)
15.08.2015 23:00 20,8 C 73 % 1008,0 hPa 0,0 l/m 4,3 km/h (1 Bft) N 0,00 h 0,051 mm 0,0 UV-I 0 W/m 15,9 C 20,6 C 8,2 km/h (2 Bft)
16.08.2015 00:00 18,9 C 80 % 1008,9 hPa 0,6 l/m 2,0 km/h (1 Bft) N 0,00 h 0,025 mm 0,0 UV-I 0 W/m 15,3 C 18,9 C 5,6 km/h (2 Bft)
16.08.2015 01:00 16,9 C 93 % 1009,2 hPa 1,8 l/m 0,0 km/h (0 Bft) N 0,00 h 0,025 mm 0,0 UV-I 0 W/m 15,8 C 16,9 C 0,1 km/h (0 Bft)
16.08.2015 02:00 16,9 C 95 % 1009,1 hPa 2,6 l/m 0,6 km/h (0 Bft) N 0,00 h 0,000 mm 0,0 UV-I 0 W/m 16,1 C 16,9 C 2,3 km/h (1 Bft)
16.08.2015 03:00 17,1 C 96 % 1008,1 hPa 0,2 l/m 2,4 km/h (1 Bft) N 0,00 h 0,000 mm 0,0 UV-I 0 W/m 16,5 C 17,0 C 5,1 km/h (1 Bft)
16.08.2015 04:00 17,2 C 96 % 1008,0 hPa 0,6 l/m 0,2 km/h (0 Bft) N 0,00 h 0,000 mm 0,0 UV-I 0 W/m 16,5 C 17,2 C 0,9 km/h (0 Bft)
16.08.2015 05:00 17,1 C 96 % 1008,1 hPa 1,8 l/m 0,1 km/h (0 Bft) N 0,00 h 0,000 mm 0,0 UV-I 0 W/m 16,6 C 17,1 C 0,6 km/h (0 Bft)
16.08.2015 06:00 17,1 C 97 % 1007,7 hPa 2,6 l/m 3,7 km/h (1 Bft) N 0,00 h 0,000 mm 0,0 UV-I 9 W/m 16,5 C 16,6 C 6,9 km/h (2 Bft)
16.08.2015 07:00 17,2 C 97 % 1007,5 hPa 0,0 l/m 1,1 km/h (1 Bft) N 0,48 h 0,000 mm 0,5 UV-I 79 W/m 16,6 C 17,1 C 2,5 km/h (1 Bft)
16.08.2015 08:00 18,2 C 94 % 1007,6 hPa 0,0 l/m 1,0 km/h (0 Bft) N 1,00 h 0,051 mm 0,8 UV-I 153 W/m 17,2 C 18,2 C 2,7 km/h (1 Bft)
16.08.2015 09:00 18,6 C 92 % 1007,4 hPa 0,0 l/m 2,3 km/h (1 Bft) N 1,00 h 0,076 mm 1,2 UV-I 169 W/m 17,3 C 18,6 C 5,5 km/h (2 Bft)
16.08.2015 10:00 19,2 C 91 % 1007,4 hPa 0,0 l/m 0,4 km/h (0 Bft) N 1,00 h 0,102 mm 1,1 UV-I 127 W/m 17,7 C 19,2 C 1,6 km/h (1 Bft)
16.08.2015 11:00 19,1 C 92 % 1007,3 hPa 1,0 l/m 0,3 km/h (0 Bft) N 0,18 h 0,076 mm 0,6 UV-I 31 W/m 17,8 C 19,1 C 1,0 km/h (0 Bft)
16.08.2015 12:00 18,6 C 95 % 1007,6 hPa 0,2 l/m 1,1 km/h (0 Bft) N 0,33 h 0,025 mm 0,7 UV-I 42 W/m 17,8 C 18,6 C 3,4 km/h (1 Bft)
16.08.2015 13:00 17,6 C 96 % 1007,7 hPa 0,0 l/m 0,9 km/h (0 Bft) N 0,68 h 0,025 mm 0,7 UV-I 64 W/m 17,0 C 17,6 C 3,7 km/h (1 Bft)
16.08.2015 14:00 17,3 C 96 % 1007,9 hPa 11,4 l/m 1,3 km/h (1 Bft) N 0,38 h 0,025 mm 0,9 UV-I 59 W/m 16,7 C 17,2 C 3,4 km/h (1 Bft)
16.08.2015 15:00 17,7 C 97 % 1008,0 hPa 0,0 l/m 1,6 km/h (1 Bft) N 1,00 h 0,025 mm 1,2 UV-I 138 W/m 17,2 C 17,7 C 4,0 km/h (1 Bft)
16.08.2015 16:00 18,2 C 93 % 1008,0 hPa 0,0 l/m 2,3 km/h (1 Bft) W-SW 1,00 h 0,076 mm 1,7 UV-I 249 W/m 17,1 C 18,2 C 5,9 km/h (2 Bft)
16.08.2015 17:00 18,3 C 92 % 1008,0 hPa 0,0 l/m 2,2 km/h (1 Bft) W-SW 0,82 h 0,152 mm 0,9 UV-I 113 W/m 16,9 C 18,3 C 6,1 km/h (2 Bft)
16.08.2015 18:00 17,6 C 94 % 1008,0 hPa 0,0 l/m 0,7 km/h (0 Bft) N 0,00 h 0,076 mm 0,0 UV-I 26 W/m 16,6 C 17,6 C 2,9 km/h (1 Bft)
16.08.2015 19:00 17,2 C 94 % 1008,4 hPa 0,0 l/m 1,3 km/h (1 Bft) N 0,00 h 0,025 mm 0,0 UV-I 12 W/m 16,3 C 17,2 C 4,1 km/h (1 Bft)
16.08.2015 20:00 16,9 C 95 % 1008,6 hPa 0,0 l/m 1,0 km/h (0 Bft) N 0,00 h 0,000 mm 0,0 UV-I 0 W/m 16,1 C 16,9 C 3,4 km/h (1 Bft)
16.08.2015 21:00 16,6 C 96 % 1008,7 hPa 0,0 l/m 1,4 km/h (1 Bft) SW 0,00 h 0,000 mm 0,0 UV-I 0 W/m 16,0 C 16,6 C 4,7 km/h (1 Bft)
16.08.2015 22:00 16,4 C 95 % 1008,8 hPa 0,0 l/m 2,1 km/h (1 Bft) W-SW 0,00 h 0,000 mm 0,0 UV-I 0 W/m 15,7 C 16,4 C 5,9 km/h (2 Bft)
16.08.2015 23:00 16,3 C 95 % 1009,0 hPa 0,0 l/m 0,7 km/h (0 Bft) N 0,00 h 0,000 mm 0,0 UV-I 0 W/m 15,5 C 16,3 C 2,5 km/h (1 Bft)
Min-Datum _ 11.08.15 11.08.15 14.08.15 - 10.08.15 - - - - - 11.08.15 16.08.15 10.08.15
_ Min-Zeit 06:06 17:16 18:30 - 00:00 - - - - - 17:34 06:56 00:00
Minimum _ 15,2 C 21 % 1003,6 hPa - 0,0 km/h (0 Bft) - - - - - 7,1 C 13,6 C 0,0 km/h (0 Bft)
Max-Datum _ 10.08.15 16.08.15 13.08.15 16.08.15 12.08.15 - 11.08.15 10.08.15 15.08.15 15.08.15 10.08.15 10.08.15 14.08.15
_ Max-Zeit 16:22 05:35 00:09 14:21 15:42 - 07:51 14:00 12:49 11:13 09:46 16:22 23:47
Maximum _ 34,2 C 97 % 1017,6 hPa 11,4 l/m 19,3 km/h
N (3 Bft)
- 0,07 h 0,635 mm 6,6 UV-I 1018 W/m 19,7 C 34,2 C 30,6 km/h
S (5 Bft)
Durchschnitt _ 23,9 C 63 % 1011,0 hPa #27,2 l/m 2,1 km/h (1 Bft) N #78:33 h #27,241 mm 2,5 UV-I 326 W/m 15,3 C 23,9 C 4,9 km/h (1 Bft)